sensor_id;sensor_type;location;lat;lon;timestamp;pressure;altitude;pressure_sealevel;temperature;humidity
81628;BME280;71036;51.102;6.514;2023-06-26T00:02:08;100578.31;;;22.52;58.20
81628;BME280;71036;51.102;6.514;2023-06-26T00:04:34;100568.44;;;22.51;58.29
81628;BME280;71036;51.102;6.514;2023-06-26T00:07:01;100580.63;;;22.48;57.58
81628;BME280;71036;51.102;6.514;2023-06-26T00:09:26;100579.63;;;22.56;56.98
81628;BME280;71036;51.102;6.514;2023-06-26T00:11:51;100571.25;;;22.64;56.55
81628;BME280;71036;51.102;6.514;2023-06-26T00:14:17;100567.44;;;22.58;57.97
81628;BME280;71036;51.102;6.514;2023-06-26T00:16:45;100578.16;;;22.53;57.20
81628;BME280;71036;51.102;6.514;2023-06-26T00:19:11;100574.00;;;22.64;56.30
81628;BME280;71036;51.102;6.514;2023-06-26T00:21:36;100577.94;;;22.55;57.84
81628;BME280;71036;51.102;6.514;2023-06-26T00:24:01;100572.75;;;22.39;58.71
81628;BME280;71036;51.102;6.514;2023-06-26T00:26:27;100568.84;;;22.26;58.97
81628;BME280;71036;51.102;6.514;2023-06-26T00:28:52;100574.25;;;22.20;59.18
81628;BME280;71036;51.102;6.514;2023-06-26T00:31:17;100568.13;;;22.18;59.67
81628;BME280;71036;51.102;6.514;2023-06-26T00:33:42;100569.75;;;22.12;59.82
81628;BME280;71036;51.102;6.514;2023-06-26T00:36:08;100571.16;;;22.08;60.34
81628;BME280;71036;51.102;6.514;2023-06-26T00:38:34;100570.66;;;21.98;60.33
81628;BME280;71036;51.102;6.514;2023-06-26T00:41:00;100577.47;;;21.88;60.69
81628;BME280;71036;51.102;6.514;2023-06-26T00:43:25;100566.16;;;21.76;61.11
81628;BME280;71036;51.102;6.514;2023-06-26T00:45:50;100567.97;;;21.69;61.66
81628;BME280;71036;51.102;6.514;2023-06-26T00:48:16;100569.97;;;21.60;61.85
81628;BME280;71036;51.102;6.514;2023-06-26T00:50:42;100568.19;;;21.53;62.00
81628;BME280;71036;51.102;6.514;2023-06-26T00:53:09;100573.94;;;21.43;62.18
81628;BME280;71036;51.102;6.514;2023-06-26T00:55:35;100570.38;;;21.43;62.06
81628;BME280;71036;51.102;6.514;2023-06-26T00:58:01;100566.97;;;21.41;62.23
81628;BME280;71036;51.102;6.514;2023-06-26T01:00:26;100563.97;;;21.36;62.52
81628;BME280;71036;51.102;6.514;2023-06-26T01:02:51;100573.97;;;21.29;62.73
81628;BME280;71036;51.102;6.514;2023-06-26T01:05:17;100566.88;;;21.19;62.95
81628;BME280;71036;51.102;6.514;2023-06-26T01:07:48;100567.00;;;21.11;62.85
81628;BME280;71036;51.102;6.514;2023-06-26T01:10:14;100561.13;;;21.14;63.19
81628;BME280;71036;51.102;6.514;2023-06-26T01:12:40;100566.44;;;21.16;63.12
81628;BME280;71036;51.102;6.514;2023-06-26T01:15:06;100558.41;;;21.14;63.19
81628;BME280;71036;51.102;6.514;2023-06-26T01:17:31;100561.13;;;21.14;63.30
81628;BME280;71036;51.102;6.514;2023-06-26T01:19:59;100559.84;;;21.10;63.73
81628;BME280;71036;51.102;6.514;2023-06-26T01:22:48;100561.22;;;21.06;63.63
81628;BME280;71036;51.102;6.514;2023-06-26T01:27:57;100555.09;;;21.04;63.83
81628;BME280;71036;51.102;6.514;2023-06-26T01:30:22;100548.09;;;21.02;63.82
81628;BME280;71036;51.102;6.514;2023-06-26T01:32:49;100561.69;;;20.95;64.16
81628;BME280;71036;51.102;6.514;2023-06-26T01:35:15;100555.75;;;20.92;64.72
81628;BME280;71036;51.102;6.514;2023-06-26T01:37:41;100553.91;;;20.84;64.83
81628;BME280;71036;51.102;6.514;2023-06-26T01:40:06;100555.34;;;20.80;65.28
81628;BME280;71036;51.102;6.514;2023-06-26T01:42:35;100559.47;;;20.76;65.13
81628;BME280;71036;51.102;6.514;2023-06-26T01:45:13;100558.84;;;20.74;65.03
81628;BME280;71036;51.102;6.514;2023-06-26T01:47:44;100556.22;;;20.81;64.26
81628;BME280;71036;51.102;6.514;2023-06-26T01:50:17;100556.28;;;20.87;63.98
81628;BME280;71036;51.102;6.514;2023-06-26T01:52:59;100568.47;;;20.99;63.26
81628;BME280;71036;51.102;6.514;2023-06-26T01:55:58;100568.47;;;20.99;63.68
81628;BME280;71036;51.102;6.514;2023-06-26T01:58:25;100570.25;;;20.92;64.01
81628;BME280;71036;51.102;6.514;2023-06-26T02:00:51;100564.22;;;20.82;64.66
81628;BME280;71036;51.102;6.514;2023-06-26T02:03:16;100569.94;;;20.73;65.02
81628;BME280;71036;51.102;6.514;2023-06-26T02:05:42;100570.50;;;20.68;65.52
81628;BME280;71036;51.102;6.514;2023-06-26T02:08:08;100562.88;;;20.63;65.54
81628;BME280;71036;51.102;6.514;2023-06-26T02:10:34;100559.94;;;20.65;64.87
81628;BME280;71036;51.102;6.514;2023-06-26T02:13:00;100567.97;;;20.66;65.31
81628;BME280;71036;51.102;6.514;2023-06-26T02:15:26;100568.44;;;20.70;64.65
81628;BME280;71036;51.102;6.514;2023-06-26T02:17:51;100584.47;;;20.73;64.40
81628;BME280;71036;51.102;6.514;2023-06-26T02:20:16;100589.88;;;20.81;64.16
81628;BME280;71036;51.102;6.514;2023-06-26T02:22:42;100583.72;;;20.94;62.40
81628;BME280;71036;51.102;6.514;2023-06-26T02:25:08;100590.97;;;21.24;60.68
81628;BME280;71036;51.102;6.514;2023-06-26T02:27:34;100579.78;;;21.55;58.77
81628;BME280;71036;51.102;6.514;2023-06-26T02:29:59;100578.41;;;21.80;58.05
81628;BME280;71036;51.102;6.514;2023-06-26T02:32:24;100582.38;;;21.92;57.50
81628;BME280;71036;51.102;6.514;2023-06-26T02:34:49;100593.34;;;21.92;58.12
81628;BME280;71036;51.102;6.514;2023-06-26T02:37:17;100591.63;;;21.91;57.87
81628;BME280;71036;51.102;6.514;2023-06-26T02:39:42;100592.03;;;21.88;58.35
81628;BME280;71036;51.102;6.514;2023-06-26T02:42:07;100597.22;;;21.83;58.81
81628;BME280;71036;51.102;6.514;2023-06-26T02:44:33;100604.47;;;21.76;59.38
81628;BME280;71036;51.102;6.514;2023-06-26T02:46:58;100601.94;;;21.74;59.21
81628;BME280;71036;51.102;6.514;2023-06-26T02:49:23;100617.44;;;21.67;59.91
81628;BME280;71036;51.102;6.514;2023-06-26T02:51:48;100607.34;;;21.68;59.97
81628;BME280;71036;51.102;6.514;2023-06-26T02:54:14;100610.44;;;21.65;60.14
81628;BME280;71036;51.102;6.514;2023-06-26T02:56:39;100618.94;;;21.55;60.60
81628;BME280;71036;51.102;6.514;2023-06-26T02:59:04;100621.16;;;21.45;61.33
81628;BME280;71036;51.102;6.514;2023-06-26T03:01:29;100621.44;;;21.36;61.77
81628;BME280;71036;51.102;6.514;2023-06-26T03:03:55;100631.63;;;21.27;62.22
81628;BME280;71036;51.102;6.514;2023-06-26T03:06:20;100630.47;;;21.21;62.73
81628;BME280;71036;51.102;6.514;2023-06-26T03:08:46;100628.13;;;21.18;63.15
81628;BME280;71036;51.102;6.514;2023-06-26T03:11:11;100630.59;;;21.13;63.16
81628;BME280;71036;51.102;6.514;2023-06-26T03:13:37;100633.69;;;21.10;63.18
81628;BME280;71036;51.102;6.514;2023-06-26T03:16:03;100636.69;;;21.15;62.88
81628;BME280;71036;51.102;6.514;2023-06-26T03:18:28;100634.88;;;21.08;63.35
81628;BME280;71036;51.102;6.514;2023-06-26T03:20:55;100645.13;;;21.06;63.67
81628;BME280;71036;51.102;6.514;2023-06-26T03:23:21;100638.06;;;20.97;63.93
81628;BME280;71036;51.102;6.514;2023-06-26T03:25:47;100643.41;;;20.90;64.75
81628;BME280;71036;51.102;6.514;2023-06-26T03:28:12;100633.03;;;20.86;64.76
81628;BME280;71036;51.102;6.514;2023-06-26T03:30:37;100638.31;;;20.87;64.67
81628;BME280;71036;51.102;6.514;2023-06-26T03:33:03;100637.66;;;20.85;65.18
81628;BME280;71036;51.102;6.514;2023-06-26T03:35:28;100640.09;;;20.80;65.01
81628;BME280;71036;51.102;6.514;2023-06-26T03:37:53;100634.44;;;20.82;65.10
81628;BME280;71036;51.102;6.514;2023-06-26T03:40:19;100635.94;;;20.84;64.94
81628;BME280;71036;51.102;6.514;2023-06-26T03:42:44;100643.50;;;20.82;64.51
81628;BME280;71036;51.102;6.514;2023-06-26T03:45:10;100635.94;;;20.84;64.78
81628;BME280;71036;51.102;6.514;2023-06-26T03:47:35;100646.06;;;20.84;64.94
81628;BME280;71036;51.102;6.514;2023-06-26T03:50:00;100640.75;;;20.82;64.95
81628;BME280;71036;51.102;6.514;2023-06-26T03:52:25;100647.28;;;20.81;64.92
81628;BME280;71036;51.102;6.514;2023-06-26T03:54:51;100648.09;;;20.82;64.84
81628;BME280;71036;51.102;6.514;2023-06-26T03:57:16;100643.69;;;20.81;65.63
81628;BME280;71036;51.102;6.514;2023-06-26T03:59:41;100650.38;;;20.78;65.23
81628;BME280;71036;51.102;6.514;2023-06-26T04:02:06;100654.63;;;20.81;65.11
81628;BME280;71036;51.102;6.514;2023-06-26T04:04:32;100656.41;;;20.88;65.26
81628;BME280;71036;51.102;6.514;2023-06-26T04:06:57;100665.00;;;20.85;65.73
81628;BME280;71036;51.102;6.514;2023-06-26T04:09:24;100665.47;;;20.89;65.98
81628;BME280;71036;51.102;6.514;2023-06-26T04:11:50;100669.81;;;20.83;66.00
81628;BME280;71036;51.102;6.514;2023-06-26T04:14:15;100671.81;;;20.89;66.32
81628;BME280;71036;51.102;6.514;2023-06-26T04:16:40;100680.16;;;20.88;66.57
81628;BME280;71036;51.102;6.514;2023-06-26T04:19:05;100689.06;;;20.90;66.37
81628;BME280;71036;51.102;6.514;2023-06-26T04:21:31;100685.84;;;20.86;66.79
81628;BME280;71036;51.102;6.514;2023-06-26T04:23:56;100686.00;;;20.85;66.28
81628;BME280;71036;51.102;6.514;2023-06-26T04:26:21;100686.22;;;20.83;66.83
81628;BME280;71036;51.102;6.514;2023-06-26T04:28:47;100686.22;;;20.83;66.60
81628;BME280;71036;51.102;6.514;2023-06-26T04:31:12;100690.09;;;20.89;66.35
81628;BME280;71036;51.102;6.514;2023-06-26T04:33:39;100686.88;;;20.85;66.69
81628;BME280;71036;51.102;6.514;2023-06-26T04:36:05;100690.53;;;20.78;66.40
81628;BME280;71036;51.102;6.514;2023-06-26T04:38:33;100690.53;;;20.78;66.20
81628;BME280;71036;51.102;6.514;2023-06-26T04:40:59;100695.50;;;20.74;66.30
81628;BME280;71036;51.102;6.514;2023-06-26T04:43:25;100688.66;;;20.78;65.71
81628;BME280;71036;51.102;6.514;2023-06-26T04:45:50;100689.09;;;20.82;65.67
81628;BME280;71036;51.102;6.514;2023-06-26T04:48:15;100696.16;;;20.76;65.66
81628;BME280;71036;51.102;6.514;2023-06-26T04:50:41;100691.44;;;20.70;65.78
81628;BME280;71036;51.102;6.514;2023-06-26T04:53:06;100692.47;;;20.69;65.89
81628;BME280;71036;51.102;6.514;2023-06-26T04:55:31;100694.13;;;20.78;65.99
81628;BME280;71036;51.102;6.514;2023-06-26T04:57:57;100691.84;;;20.82;65.42
81628;BME280;71036;51.102;6.514;2023-06-26T05:00:22;100697.44;;;20.88;64.66
81628;BME280;71036;51.102;6.514;2023-06-26T05:02:49;100695.56;;;20.89;64.79
81628;BME280;71036;51.102;6.514;2023-06-26T05:05:24;100707.88;;;20.85;64.63
81628;BME280;71036;51.102;6.514;2023-06-26T05:07:49;100703.38;;;20.92;64.87
81628;BME280;71036;51.102;6.514;2023-06-26T05:10:14;100710.81;;;20.83;64.15
81628;BME280;71036;51.102;6.514;2023-06-26T05:12:40;100718.59;;;20.72;64.21
81628;BME280;71036;51.102;6.514;2023-06-26T05:15:06;100722.59;;;20.61;64.75
81628;BME280;71036;51.102;6.514;2023-06-26T05:17:31;100722.94;;;20.58;64.59
81628;BME280;71036;51.102;6.514;2023-06-26T05:19:57;100726.59;;;20.50;65.06
81628;BME280;71036;51.102;6.514;2023-06-26T05:22:22;100732.78;;;20.44;65.17
81628;BME280;71036;51.102;6.514;2023-06-26T05:24:48;100734.50;;;20.45;64.76
81628;BME280;71036;51.102;6.514;2023-06-26T05:27:13;100740.81;;;20.46;64.85
81628;BME280;71036;51.102;6.514;2023-06-26T05:29:46;100745.53;;;20.52;64.93
81628;BME280;71036;51.102;6.514;2023-06-26T05:32:13;100749.63;;;20.56;64.66
81628;BME280;71036;51.102;6.514;2023-06-26T05:34:41;100751.50;;;20.55;64.26
81628;BME280;71036;51.102;6.514;2023-06-26T05:37:06;100751.38;;;20.49;64.38
81628;BME280;71036;51.102;6.514;2023-06-26T05:39:32;100752.94;;;20.43;64.57
81628;BME280;71036;51.102;6.514;2023-06-26T05:41:58;100756.22;;;20.39;64.73
81628;BME280;71036;51.102;6.514;2023-06-26T05:44:23;100751.41;;;20.41;65.26
81628;BME280;71036;51.102;6.514;2023-06-26T05:46:48;100751.91;;;20.44;65.10
81628;BME280;71036;51.102;6.514;2023-06-26T05:49:13;100753.66;;;20.37;65.68
81628;BME280;71036;51.102;6.514;2023-06-26T05:51:39;100753.88;;;20.20;66.05
81628;BME280;71036;51.102;6.514;2023-06-26T05:54:04;100760.75;;;20.16;66.58
81628;BME280;71036;51.102;6.514;2023-06-26T05:56:30;100763.78;;;20.21;66.70
81628;BME280;71036;51.102;6.514;2023-06-26T05:58:56;100768.03;;;20.31;66.76
81628;BME280;71036;51.102;6.514;2023-06-26T06:01:22;100762.34;;;20.41;66.37
81628;BME280;71036;51.102;6.514;2023-06-26T06:03:47;100764.47;;;20.31;66.95
81628;BME280;71036;51.102;6.514;2023-06-26T06:06:12;100767.88;;;20.25;67.26
81628;BME280;71036;51.102;6.514;2023-06-26T06:08:38;100767.53;;;20.20;67.46
81628;BME280;71036;51.102;6.514;2023-06-26T06:11:03;100768.03;;;20.23;67.30
81628;BME280;71036;51.102;6.514;2023-06-26T06:13:29;100778.94;;;20.39;66.95
81628;BME280;71036;51.102;6.514;2023-06-26T06:15:54;100773.06;;;20.50;66.42
81628;BME280;71036;51.102;6.514;2023-06-26T06:18:20;100784.56;;;20.68;65.94
81628;BME280;71036;51.102;6.514;2023-06-26T06:20:46;100778.25;;;20.91;65.38
81628;BME280;71036;51.102;6.514;2023-06-26T06:23:11;100774.38;;;21.08;65.17
81628;BME280;71036;51.102;6.514;2023-06-26T06:25:36;100784.94;;;21.34;63.35
81628;BME280;71036;51.102;6.514;2023-06-26T06:28:01;100792.72;;;21.45;63.49
81628;BME280;71036;51.102;6.514;2023-06-26T06:30:27;100798.31;;;21.29;63.62
81628;BME280;71036;51.102;6.514;2023-06-26T06:32:53;100796.00;;;21.55;62.91
81628;BME280;71036;51.102;6.514;2023-06-26T06:35:19;100800.25;;;21.43;63.58
81628;BME280;71036;51.102;6.514;2023-06-26T06:37:44;100807.28;;;21.60;62.75
81628;BME280;71036;51.102;6.514;2023-06-26T06:40:10;100816.31;;;21.46;62.97
81628;BME280;71036;51.102;6.514;2023-06-26T06:42:35;100822.78;;;21.82;62.37
81628;BME280;71036;51.102;6.514;2023-06-26T06:45:04;100823.13;;;21.64;62.50
81628;BME280;71036;51.102;6.514;2023-06-26T06:47:31;100832.50;;;21.85;61.89
81628;BME280;71036;51.102;6.514;2023-06-26T06:49:56;100839.03;;;22.86;58.87
81628;BME280;71036;51.102;6.514;2023-06-26T06:52:21;100833.50;;;22.36;60.11
81628;BME280;71036;51.102;6.514;2023-06-26T06:54:51;100845.88;;;22.17;60.56
81628;BME280;71036;51.102;6.514;2023-06-26T06:57:17;100853.50;;;22.80;59.54
81628;BME280;71036;51.102;6.514;2023-06-26T06:59:42;100853.22;;;22.46;59.23
81628;BME280;71036;51.102;6.514;2023-06-26T07:02:07;100853.69;;;22.49;59.35
81628;BME280;71036;51.102;6.514;2023-06-26T07:04:32;100856.16;;;22.73;58.80
81628;BME280;71036;51.102;6.514;2023-06-26T07:06:58;100867.66;;;22.98;58.58
81628;BME280;71036;51.102;6.514;2023-06-26T07:09:23;100853.06;;;22.47;59.39
81628;BME280;71036;51.102;6.514;2023-06-26T07:11:48;100858.63;;;22.68;59.07
81628;BME280;71036;51.102;6.514;2023-06-26T07:14:13;100862.63;;;23.23;58.71
81628;BME280;71036;51.102;6.514;2023-06-26T07:16:39;100847.53;;;23.55;56.30
81628;BME280;71036;51.102;6.514;2023-06-26T07:19:04;100859.09;;;23.29;56.83
81628;BME280;71036;51.102;6.514;2023-06-26T07:21:29;100850.25;;;22.91;58.16
81628;BME280;71036;51.102;6.514;2023-06-26T07:23:54;100848.53;;;22.90;58.34
81628;BME280;71036;51.102;6.514;2023-06-26T07:26:20;100851.28;;;22.90;58.38
81628;BME280;71036;51.102;6.514;2023-06-26T07:28:47;100850.88;;;23.50;57.31
81628;BME280;71036;51.102;6.514;2023-06-26T07:31:13;100847.88;;;23.94;56.70
81628;BME280;71036;51.102;6.514;2023-06-26T07:33:39;100853.25;;;23.81;55.54
81628;BME280;71036;51.102;6.514;2023-06-26T07:36:05;100858.81;;;23.38;56.16
81628;BME280;71036;51.102;6.514;2023-06-26T07:38:30;100870.00;;;23.01;58.04
81628;BME280;71036;51.102;6.514;2023-06-26T07:40:56;100877.03;;;23.25;56.84
81628;BME280;71036;51.102;6.514;2023-06-26T07:43:21;100879.13;;;23.08;57.66
81628;BME280;71036;51.102;6.514;2023-06-26T07:45:48;100877.81;;;22.83;58.10
81628;BME280;71036;51.102;6.514;2023-06-26T07:48:13;100887.69;;;22.99;57.96
81628;BME280;71036;51.102;6.514;2023-06-26T07:50:38;100881.88;;;23.08;57.67
81628;BME280;71036;51.102;6.514;2023-06-26T07:53:03;100876.59;;;23.28;57.20
81628;BME280;71036;51.102;6.514;2023-06-26T07:55:30;100882.13;;;23.70;55.93
81628;BME280;71036;51.102;6.514;2023-06-26T07:57:56;100889.59;;;23.55;55.51
81628;BME280;71036;51.102;6.514;2023-06-26T08:00:21;100892.06;;;23.99;55.20
81628;BME280;71036;51.102;6.514;2023-06-26T08:02:47;100897.41;;;23.79;55.63
81628;BME280;71036;51.102;6.514;2023-06-26T08:05:12;100908.44;;;23.22;56.51
81628;BME280;71036;51.102;6.514;2023-06-26T08:07:38;100899.28;;;23.15;56.91
81628;BME280;71036;51.102;6.514;2023-06-26T08:10:04;100899.13;;;23.02;56.93
81628;BME280;71036;51.102;6.514;2023-06-26T08:12:29;100915.50;;;22.37;58.83
81628;BME280;71036;51.102;6.514;2023-06-26T08:14:55;100904.00;;;22.42;58.63
81628;BME280;71036;51.102;6.514;2023-06-26T08:17:20;100910.63;;;22.32;59.47
81628;BME280;71036;51.102;6.514;2023-06-26T08:19:45;100920.34;;;22.20;60.28
81628;BME280;71036;51.102;6.514;2023-06-26T08:22:10;100909.47;;;22.12;59.29
81628;BME280;71036;51.102;6.514;2023-06-26T08:24:36;100912.13;;;22.35;58.54
81628;BME280;71036;51.102;6.514;2023-06-26T08:27:02;100921.31;;;22.57;58.51
81628;BME280;71036;51.102;6.514;2023-06-26T08:29:28;100922.16;;;22.43;58.76
81628;BME280;71036;51.102;6.514;2023-06-26T08:31:53;100929.53;;;22.57;58.08
81628;BME280;71036;51.102;6.514;2023-06-26T08:34:19;100926.59;;;22.44;59.09
81628;BME280;71036;51.102;6.514;2023-06-26T08:36:44;100934.31;;;22.55;58.25
81628;BME280;71036;51.102;6.514;2023-06-26T08:39:10;100933.88;;;22.51;58.42
81628;BME280;71036;51.102;6.514;2023-06-26T08:41:35;100941.94;;;22.67;57.65
81628;BME280;71036;51.102;6.514;2023-06-26T08:44:02;100936.63;;;22.95;56.62
81628;BME280;71036;51.102;6.514;2023-06-26T08:46:28;100950.25;;;23.39;55.71
81628;BME280;71036;51.102;6.514;2023-06-26T08:49:01;100932.81;;;23.89;54.38
81628;BME280;71036;51.102;6.514;2023-06-26T08:51:28;100936.47;;;24.86;51.49
81628;BME280;71036;51.102;6.514;2023-06-26T08:53:58;100936.13;;;24.68;51.58
81628;BME280;71036;51.102;6.514;2023-06-26T08:56:32;100936.34;;;25.94;47.93
81628;BME280;71036;51.102;6.514;2023-06-26T08:58:57;100942.94;;;26.32;46.55
81628;BME280;71036;51.102;6.514;2023-06-26T09:01:24;100944.97;;;24.91;50.58
81628;BME280;71036;51.102;6.514;2023-06-26T09:03:50;100951.41;;;25.11;50.44
81628;BME280;71036;51.102;6.514;2023-06-26T09:06:16;100943.56;;;25.82;47.90
81628;BME280;71036;51.102;6.514;2023-06-26T09:08:43;100942.84;;;24.59;50.89
81628;BME280;71036;51.102;6.514;2023-06-26T09:11:08;100932.34;;;24.75;50.59
81628;BME280;71036;51.102;6.514;2023-06-26T09:13:34;100935.19;;;25.42;49.41
81628;BME280;71036;51.102;6.514;2023-06-26T09:16:04;100934.31;;;26.99;44.93
81628;BME280;71036;51.102;6.514;2023-06-26T09:18:32;100925.78;;;28.32;41.31
81628;BME280;71036;51.102;6.514;2023-06-26T09:20:57;100940.50;;;29.24;40.05
81628;BME280;71036;51.102;6.514;2023-06-26T09:23:23;100937.88;;;28.56;41.12
81628;BME280;71036;51.102;6.514;2023-06-26T09:25:51;100945.28;;;28.80;41.14
81628;BME280;71036;51.102;6.514;2023-06-26T09:28:16;100944.75;;;28.72;39.91
81628;BME280;71036;51.102;6.514;2023-06-26T09:30:41;100943.53;;;28.43;40.48
81628;BME280;71036;51.102;6.514;2023-06-26T09:33:20;100949.63;;;30.02;38.51
81628;BME280;71036;51.102;6.514;2023-06-26T09:35:47;100942.25;;;28.88;39.08
81628;BME280;71036;51.102;6.514;2023-06-26T09:38:13;100951.84;;;26.41;44.80
81628;BME280;71036;51.102;6.514;2023-06-26T09:40:39;100956.69;;;27.29;42.99
81628;BME280;71036;51.102;6.514;2023-06-26T09:43:05;100948.44;;;27.60;41.92
81628;BME280;71036;51.102;6.514;2023-06-26T09:45:32;100949.16;;;28.79;40.11
81628;BME280;71036;51.102;6.514;2023-06-26T09:48:01;100944.91;;;30.03;37.88
81628;BME280;71036;51.102;6.514;2023-06-26T09:50:28;100961.75;;;29.12;39.99
81628;BME280;71036;51.102;6.514;2023-06-26T09:52:54;100957.16;;;30.48;35.65
81628;BME280;71036;51.102;6.514;2023-06-26T09:55:19;100963.53;;;28.45;38.77
81628;BME280;71036;51.102;6.514;2023-06-26T09:57:47;100970.16;;;27.57;42.64
81628;BME280;71036;51.102;6.514;2023-06-26T10:00:13;100963.97;;;27.93;41.70
81628;BME280;71036;51.102;6.514;2023-06-26T10:02:39;100965.56;;;27.38;42.08
81628;BME280;71036;51.102;6.514;2023-06-26T10:05:04;100972.78;;;26.81;43.66
81628;BME280;71036;51.102;6.514;2023-06-26T10:07:31;100964.34;;;26.50;43.73
81628;BME280;71036;51.102;6.514;2023-06-26T10:09:57;100970.97;;;27.64;40.59
81628;BME280;71036;51.102;6.514;2023-06-26T10:12:28;100960.31;;;28.91;37.82
81628;BME280;71036;51.102;6.514;2023-06-26T10:14:55;100961.25;;;29.51;36.81
81628;BME280;71036;51.102;6.514;2023-06-26T10:17:21;100957.09;;;30.02;36.85
81628;BME280;71036;51.102;6.514;2023-06-26T10:19:47;100969.09;;;28.88;38.79
81628;BME280;71036;51.102;6.514;2023-06-26T10:22:15;100977.47;;;29.95;36.35
81628;BME280;71036;51.102;6.514;2023-06-26T10:24:43;100965.22;;;31.07;32.74
81628;BME280;71036;51.102;6.514;2023-06-26T10:27:15;100976.84;;;30.58;34.98
81628;BME280;71036;51.102;6.514;2023-06-26T10:29:43;100971.66;;;28.83;36.24
81628;BME280;71036;51.102;6.514;2023-06-26T10:32:11;100973.63;;;28.82;37.92
81628;BME280;71036;51.102;6.514;2023-06-26T10:34:37;100969.22;;;29.11;35.40
81628;BME280;71036;51.102;6.514;2023-06-26T10:37:03;100979.25;;;30.43;33.54
81628;BME280;71036;51.102;6.514;2023-06-26T10:39:49;100982.25;;;31.11;32.48
81628;BME280;71036;51.102;6.514;2023-06-26T10:42:18;100966.75;;;29.99;34.19
81628;BME280;71036;51.102;6.514;2023-06-26T10:44:45;100972.06;;;28.44;37.52
81628;BME280;71036;51.102;6.514;2023-06-26T10:47:12;100969.69;;;26.38;41.07
81628;BME280;71036;51.102;6.514;2023-06-26T10:49:53;100967.06;;;25.65;41.89
81628;BME280;71036;51.102;6.514;2023-06-26T10:52:18;100965.13;;;27.78;38.17
81628;BME280;71036;51.102;6.514;2023-06-26T10:54:44;100977.75;;;29.10;36.65
81628;BME280;71036;51.102;6.514;2023-06-26T10:57:10;100987.75;;;30.18;33.06
81628;BME280;71036;51.102;6.514;2023-06-26T10:59:39;100993.88;;;30.73;32.86
81628;BME280;71036;51.102;6.514;2023-06-26T11:02:05;100993.06;;;30.20;29.66
81628;BME280;71036;51.102;6.514;2023-06-26T11:04:38;100993.13;;;30.66;28.89
81628;BME280;71036;51.102;6.514;2023-06-26T11:07:21;100996.63;;;28.58;33.20
81628;BME280;71036;51.102;6.514;2023-06-26T11:10:00;100986.34;;;30.74;30.04
81628;BME280;71036;51.102;6.514;2023-06-26T11:12:42;100985.44;;;27.97;35.68
81628;BME280;71036;51.102;6.514;2023-06-26T11:15:15;100987.09;;;28.05;35.84
81628;BME280;71036;51.102;6.514;2023-06-26T11:17:42;100980.66;;;27.79;35.34
81628;BME280;71036;51.102;6.514;2023-06-26T11:20:15;100991.00;;;28.22;35.83
81628;BME280;71036;51.102;6.514;2023-06-26T11:22:41;100998.72;;;28.38;35.51
81628;BME280;71036;51.102;6.514;2023-06-26T11:25:09;101002.91;;;29.44;33.44
81628;BME280;71036;51.102;6.514;2023-06-26T11:30:06;101018.09;;;27.24;37.25
81628;BME280;71036;51.102;6.514;2023-06-26T11:32:32;101015.94;;;27.77;35.19
81628;BME280;71036;51.102;6.514;2023-06-26T11:34:58;101001.56;;;28.31;35.14
81628;BME280;71036;51.102;6.514;2023-06-26T11:37:25;101001.00;;;29.09;34.22
81628;BME280;71036;51.102;6.514;2023-06-26T11:39:50;101002.59;;;28.98;33.79
81628;BME280;71036;51.102;6.514;2023-06-26T11:42:17;101009.50;;;29.32;33.69
81628;BME280;71036;51.102;6.514;2023-06-26T11:44:43;101009.78;;;30.89;31.23
81628;BME280;71036;51.102;6.514;2023-06-26T11:47:19;101022.81;;;28.80;33.23
81628;BME280;71036;51.102;6.514;2023-06-26T11:49:45;101019.53;;;27.85;33.90
81628;BME280;71036;51.102;6.514;2023-06-26T11:52:13;101023.94;;;27.92;34.10
81628;BME280;71036;51.102;6.514;2023-06-26T11:54:38;101018.44;;;28.73;33.96
81628;BME280;71036;51.102;6.514;2023-06-26T11:57:04;101013.53;;;28.50;32.99
81628;BME280;71036;51.102;6.514;2023-06-26T11:59:38;101017.22;;;29.41;31.51
81628;BME280;71036;51.102;6.514;2023-06-26T12:02:05;101014.25;;;29.73;31.53
81628;BME280;71036;51.102;6.514;2023-06-26T12:04:32;101019.72;;;30.21;30.07
81628;BME280;71036;51.102;6.514;2023-06-26T12:06:57;101017.72;;;29.68;30.11
81628;BME280;71036;51.102;6.514;2023-06-26T12:09:23;101028.25;;;28.94;31.84
81628;BME280;71036;51.102;6.514;2023-06-26T12:11:52;101023.47;;;29.19;29.66
81628;BME280;71036;51.102;6.514;2023-06-26T12:14:19;101030.38;;;29.10;29.41
81628;BME280;71036;51.102;6.514;2023-06-26T12:16:45;101036.88;;;28.05;29.45
81628;BME280;71036;51.102;6.514;2023-06-26T12:19:11;101039.00;;;27.65;31.66
81628;BME280;71036;51.102;6.514;2023-06-26T12:24:01;101038.81;;;27.60;31.83
81628;BME280;71036;51.102;6.514;2023-06-26T12:26:27;101052.41;;;26.84;34.24
81628;BME280;71036;51.102;6.514;2023-06-26T12:28:54;101064.16;;;27.50;32.67
81628;BME280;71036;51.102;6.514;2023-06-26T12:31:26;101071.78;;;28.30;30.86
81628;BME280;71036;51.102;6.514;2023-06-26T12:33:52;101065.03;;;29.19;29.23
81628;BME280;71036;51.102;6.514;2023-06-26T12:36:17;101078.16;;;28.31;30.86
81628;BME280;71036;51.102;6.514;2023-06-26T12:38:45;101085.75;;;28.73;30.41
81628;BME280;71036;51.102;6.514;2023-06-26T12:41:13;101084.88;;;27.72;31.23
81628;BME280;71036;51.102;6.514;2023-06-26T12:43:42;101075.38;;;28.00;30.95
81628;BME280;71036;51.102;6.514;2023-06-26T12:46:08;101058.06;;;28.42;29.84
81628;BME280;71036;51.102;6.514;2023-06-26T12:48:41;101057.25;;;29.09;27.34
81628;BME280;71036;51.102;6.514;2023-06-26T12:51:15;101059.44;;;29.25;26.51
81628;BME280;71036;51.102;6.514;2023-06-26T12:53:41;101070.25;;;28.66;28.01
81628;BME280;71036;51.102;6.514;2023-06-26T12:56:10;101064.72;;;28.59;28.21